Time;durP1;ratioP1;P1;durP2;ratioP2;P2;SDS_P1;SDS_P2;PMS_P1;PMS_P2;Temp;Humidity;BMP_temperature;BMP_pressure;BME280_temperature;BME280_humidity;BME280_pressure;Samples;Min_cycle;Max_cycle;Signal;HPM_P1;HPM_P2
2021/10/30 00:00:03;;;;;;;;;;;;;;;18.32;46.12;95285.59;1047616;28;1670;-57
2021/10/30 00:00:33;;;;;;;;;;;;;;;18.33;45.95;95283.75;1045282;28;1174;-56
2021/10/30 00:01:03;;;;;;;;;;;;;;;18.32;46.03;95287.47;1046151;28;1902;-58
2021/10/30 00:01:34;;;;;;;;;;;;;;;18.31;45.99;95286.66;1040953;28;1905;-58
2021/10/30 00:02:04;;;;;;;;;;;;;;;18.33;46.01;95287.19;1044152;28;1879;-58
2021/10/30 00:02:35;;;;;;;;;;;;;;;18.33;46.06;95286.38;1043057;28;2102;-58
2021/10/30 00:03:06;;;;;;;;;;;;;;;18.32;45.84;95287.47;1044980;28;1942;-56
2021/10/30 00:03:36;;;;;;;;;;;;;;;18.33;45.84;95283.75;1045555;28;1913;-55
2021/10/30 00:04:07;;;;;;;;;;;;;;;18.34;45.82;95285.34;1047901;28;1025;-58
2021/10/30 00:04:37;;;;;;;;;;;;;;;18.32;45.88;95285.59;1046477;28;1902;-55
2021/10/30 00:05:09;;;;;;;;;;;;;;;18.32;45.98;95287.47;1047660;28;1946;-55
2021/10/30 00:05:39;;;;;;;;;;;;;;;18.30;45.84;95284.31;1044626;28;1865;-58
2021/10/30 00:06:10;;;;;;;;;;;;;;;18.32;45.92;95282.22;1045021;28;1882;-59
2021/10/30 00:06:40;;;;;;;;;;;;;;;18.31;45.97;95280.63;1043950;28;2408;-59
2021/10/30 00:07:11;;;;;;;;;;;;;;;18.31;45.89;95283.25;1045270;28;2059;-55
2021/10/30 00:07:42;;;;;;;;;;;;;;;18.31;45.94;95278.78;1048735;28;2338;-56
2021/10/30 00:08:12;;;;;;;;;;;;;;;18.30;45.84;95271.97;1047399;28;1918;-56
2021/10/30 00:08:43;;;;;;;;;;;;;;;18.30;45.88;95269.34;1044516;28;2447;-57
2021/10/30 00:09:13;;;;;;;;;;;;;;;18.29;45.93;95272.25;1043682;28;1375;-53
2021/10/30 00:09:44;;;;;;;;;;;;;;;18.29;46.01;95273.03;1040757;28;1123;-55
2021/10/30 00:10:15;;;;;;;;;;;;;;;18.30;45.85;95279.06;1041721;28;1157;-58
2021/10/30 00:10:45;;;;;;;;;;;;;;;18.30;45.92;95273.81;1047921;28;1898;-55
2021/10/30 00:11:17;;;;;;;;;;;;;;;18.31;45.87;95267.50;1046282;28;1938;-57
2021/10/30 00:11:54;;;;;;;;;;;;;;;18.30;45.87;95271.19;1046165;28;2496;-59
2021/10/30 00:12:24;;;;;;;;;;;;;;;18.29;45.90;95267.00;1040358;28;1944;-56
2021/10/30 00:12:54;;;;;;;;;;;;;;;18.31;45.72;95265.69;1044421;28;1053;-55
2021/10/30 00:13:25;;;;;;;;;;;;;;;18.31;45.81;95270.13;1042684;28;1823;-58
2021/10/30 00:13:55;;;;;;;;;;;;;;;18.31;45.84;95270.13;1047206;28;2108;-56
2021/10/30 00:14:26;;;;;;;;;;;;;;;18.31;45.92;95265.69;1046486;28;1910;-56
2021/10/30 00:14:56;;;;;;;;;;;;;;;18.32;45.78;95269.09;1048458;28;1017;-57
2021/10/30 00:15:27;;;;;;;;;;;;;;;18.31;45.77;95270.91;1044292;28;2220;-57
2021/10/30 00:15:58;;;;;;;;;;;;;;;18.30;45.75;95269.34;1044429;28;1902;-58
2021/10/30 00:16:29;;;;;;;;;;;;;;;18.30;45.93;95276.44;1045388;28;1918;-56
2021/10/30 00:16:59;;;;;;;;;;;;;;;18.30;45.81;95279.06;1045537;28;1932;-59
2021/10/30 00:17:29;;;;;;;;;;;;;;;18.30;45.82;95276.44;1045755;28;1975;-61
2021/10/30 00:18:00;;;;;;;;;;;;;;;18.31;45.79;95270.13;1044539;28;1946;-57
2021/10/30 00:18:30;;;;;;;;;;;;;;;18.31;45.83;95264.88;1047585;28;1851;-56
2021/10/30 00:19:00;;;;;;;;;;;;;;;18.31;45.79;95268.28;1046029;28;1963;-57
2021/10/30 00:19:31;;;;;;;;;;;;;;;18.31;45.69;95265.69;1045242;28;1924;-59
2021/10/30 00:20:01;;;;;;;;;;;;;;;18.31;45.73;95265.69;1046117;28;2278;-56
2021/10/30 00:20:32;;;;;;;;;;;;;;;18.31;45.70;95265.69;1044947;28;1937;-57
2021/10/30 00:21:02;;;;;;;;;;;;;;;18.31;45.81;95260.44;1044674;28;2375;-58
2021/10/30 00:21:32;;;;;;;;;;;;;;;18.30;45.67;95266.72;1045529;28;1883;-56
2021/10/30 00:22:03;;;;;;;;;;;;;;;18.30;45.86;95263.34;1041871;28;1972;-57
2021/10/30 00:22:33;;;;;;;;;;;;;;;18.30;45.84;95264.09;1040238;28;1868;-58
2021/10/30 00:23:04;;;;;;;;;;;;;;;18.29;45.70;95259.91;1045575;28;1966;-57
2021/10/30 00:23:34;;;;;;;;;;;;;;;18.30;45.69;95258.84;1045567;28;2226;-58
2021/10/30 00:24:04;;;;;;;;;;;;;;;18.29;45.74;95259.13;1044577;28;1962;-57
2021/10/30 00:24:35;;;;;;;;;;;;;;;18.29;45.67;95262.53;1044484;28;1915;-54
2021/10/30 00:25:06;;;;;;;;;;;;;;;18.29;45.80;95261.75;1045416;28;2393;-57
2021/10/30 00:25:36;;;;;;;;;;;;;;;18.29;45.71;95257.28;1043246;28;1937;-55
2021/10/30 00:26:07;;;;;;;;;;;;;;;18.28;45.73;95260.94;1043538;28;1885;-54
2021/10/30 00:26:37;;;;;;;;;;;;;;;18.28;45.61;95262.81;1043547;28;1956;-56
2021/10/30 00:27:10;;;;;;;;;;;;;;;18.29;45.77;95262.53;1044802;28;1883;-54
2021/10/30 00:27:42;;;;;;;;;;;;;;;18.29;45.79;95267.00;1047507;28;2083;-57
2021/10/30 00:28:12;;;;;;;;;;;;;;;18.29;45.78;95273.03;1045602;28;1923;-54
2021/10/30 00:28:43;;;;;;;;;;;;;;;18.28;45.79;95266.19;1048399;28;1232;-57
2021/10/30 00:29:13;;;;;;;;;;;;;;;18.31;45.81;95272.75;1047591;28;2033;-58
2021/10/30 00:29:43;;;;;;;;;;;;;;;18.29;45.78;95272.25;1044971;28;1968;-54
2021/10/30 00:30:14;;;;;;;;;;;;;;;18.29;45.63;95277.50;1045621;28;1994;-58
2021/10/30 00:30:44;;;;;;;;;;;;;;;18.29;45.66;95282.72;1045013;28;1646;-54
2021/10/30 00:31:15;;;;;;;;;;;;;;;18.27;45.71;95285.63;1046347;28;1859;-59
2021/10/30 00:31:45;;;;;;;;;;;;;;;18.28;45.60;95281.94;1045719;28;1854;-57
2021/10/30 00:32:18;;;;;;;;;;;;;;;18.28;45.61;95278.56;1045875;28;2039;-58
2021/10/30 00:32:48;;;;;;;;;;;;;;;18.29;45.80;95282.72;1041049;28;2170;-56
2021/10/30 00:33:18;;;;;;;;;;;;;;;18.29;45.67;95278.28;1044940;28;2044;-57
2021/10/30 00:33:48;;;;;;;;;;;;;;;18.28;45.64;95281.19;1047059;28;1906;-59
2021/10/30 00:34:19;;;;;;;;;;;;;;;18.28;45.68;95278.56;1046058;28;1856;-57
2021/10/30 00:34:49;;;;;;;;;;;;;;;18.27;45.68;95277.75;1046907;28;1926;-55
2021/10/30 00:35:19;;;;;;;;;;;;;;;18.29;45.59;95280.13;1046966;28;1891;-59
2021/10/30 00:35:50;;;;;;;;;;;;;;;18.29;45.68;95277.50;1047868;28;1913;-59
2021/10/30 00:36:20;;;;;;;;;;;;;;;18.29;45.59;95278.28;1046061;28;2422;-56
2021/10/30 00:36:50;;;;;;;;;;;;;;;18.29;45.68;95274.88;1047921;28;1143;-56
2021/10/30 00:37:21;;;;;;;;;;;;;;;18.28;45.55;95276.69;1046593;28;1906;-59
2021/10/30 00:37:51;;;;;;;;;;;;;;;18.29;45.58;95273.03;1046804;28;1815;-56
2021/10/30 00:38:22;;;;;;;;;;;;;;;18.29;45.55;95272.25;1048562;28;1193;-58
2021/10/30 00:38:52;;;;;;;;;;;;;;;18.29;45.62;95272.25;1047171;28;1957;-57
2021/10/30 00:39:23;;;;;;;;;;;;;;;18.28;45.58;95270.69;1046261;28;1918;-59
2021/10/30 00:39:53;;;;;;;;;;;;;;;18.31;45.59;95270.13;1046838;28;1861;-58
2021/10/30 00:40:23;;;;;;;;;;;;;;;18.29;45.58;95272.25;1046845;28;1894;-58
2021/10/30 00:40:54;;;;;;;;;;;;;;;18.28;45.52;95266.19;1045569;28;2152;-58
2021/10/30 00:41:25;;;;;;;;;;;;;;;18.27;45.54;95261.22;1047723;28;1487;-58
2021/10/30 00:41:56;;;;;;;;;;;;;;;18.25;45.57;95261.50;1048028;28;1279;-57
2021/10/30 00:42:26;;;;;;;;;;;;;;;18.27;45.65;95275.16;1048243;28;1272;-56
2021/10/30 00:42:56;;;;;;;;;;;;;;;18.27;45.57;95267.28;1046984;28;2048;-58
2021/10/30 00:43:27;;;;;;;;;;;;;;;18.28;45.57;95265.44;1048752;28;1150;-58
2021/10/30 00:44:05;;;;;;;;;;;;;;;18.28;45.49;95270.69;1048861;28;1091;-57
2021/10/30 00:44:35;;;;;;;;;;;;;;;18.25;45.60;95272.00;1048065;28;1150;-58
2021/10/30 00:45:06;;;;;;;;;;;;;;;18.25;45.68;95269.38;1048508;28;1167;-59
2021/10/30 00:45:36;;;;;;;;;;;;;;;18.28;45.53;95265.44;1052545;28;975;-58
2021/10/30 00:46:07;;;;;;;;;;;;;;;18.27;45.59;95259.41;1051020;28;1103;-56
2021/10/30 00:46:40;;;;;;;;;;;;;;;18.28;45.52;95260.94;1050981;28;1274;-56
2021/10/30 00:47:11;;;;;;;;;;;;;;;18.25;45.47;95261.50;1044619;28;1289;-53
2021/10/30 00:47:42;;;;;;;;;;;;;;;18.26;45.57;95263.06;1046673;28;1884;-54
2021/10/30 00:48:12;;;;;;;;;;;;;;;18.26;45.65;95262.31;1047186;28;1851;-53
2021/10/30 00:48:43;;;;;;;;;;;;;;;18.25;45.60;95265.97;1047981;28;1984;-53
2021/10/30 00:49:13;;;;;;;;;;;;;;;18.25;45.54;95258.88;1049301;28;1781;-52
2021/10/30 00:49:44;;;;;;;;;;;;;;;18.24;45.61;95259.13;1046686;28;1871;-55
2021/10/30 00:50:14;;;;;;;;;;;;;;;18.24;45.58;95253.88;1048783;28;2043;-53
2021/10/30 00:50:45;;;;;;;;;;;;;;;18.26;45.61;95257.06;1051061;28;1951;-54
2021/10/30 00:51:15;;;;;;;;;;;;;;;18.25;45.65;95253.63;1048216;28;1930;-56
2021/10/30 00:51:47;;;;;;;;;;;;;;;18.27;45.42;95248.91;1051064;28;1903;-56
2021/10/30 00:52:17;;;;;;;;;;;;;;;18.28;45.61;95244.44;1048959;28;1138;-56
2021/10/30 00:52:47;;;;;;;;;;;;;;;18.26;45.52;95252.56;1048499;28;1906;-56
2021/10/30 00:53:18;;;;;;;;;;;;;;;18.26;45.47;95254.44;1046581;28;1666;-57
2021/10/30 00:53:48;;;;;;;;;;;;;;;18.26;45.50;95254.44;1045147;28;1107;-56
2021/10/30 00:54:18;;;;;;;;;;;;;;;18.25;45.52;95250.22;1048180;28;1953;-55
2021/10/30 00:54:49;;;;;;;;;;;;;;;18.24;45.54;95254.69;1047615;28;1852;-56
2021/10/30 00:55:21;;;;;;;;;;;;;;;18.24;45.39;95249.44;1045642;28;1936;-56
2021/10/30 00:55:51;;;;;;;;;;;;;;;18.28;45.37;95258.34;1047660;28;1901;-54
2021/10/30 00:56:21;;;;;;;;;;;;;;;18.26;45.53;95263.06;1046737;28;1948;-56
2021/10/30 00:56:53;;;;;;;;;;;;;;;18.27;45.31;95263.84;1046738;28;946;-56
2021/10/30 00:57:27;;;;;;;;;;;;;;;18.26;45.53;95264.94;1048058;28;1909;-55
2021/10/30 00:57:57;;;;;;;;;;;;;;;18.27;45.41;95269.09;1045839;28;1985;-53
2021/10/30 00:58:34;;;;;;;;;;;;;;;18.26;45.47;95267.56;1050097;28;2244;-57
2021/10/30 00:59:05;;;;;;;;;;;;;;;18.26;45.45;95267.56;1049060;28;1280;-59
2021/10/30 00:59:36;;;;;;;;;;;;;;;18.25;45.52;95266.75;1042800;28;1257;-58
2021/10/30 01:00:07;;;;;;;;;;;;;;;18.27;45.48;95269.09;1043098;28;1933;-59
2021/10/30 01:00:38;;;;;;;;;;;;;;;18.26;45.44;95270.94;1039899;28;1904;-59
2021/10/30 01:01:08;;;;;;;;;;;;;;;18.26;45.54;95264.94;1043144;28;1992;-58
2021/10/30 01:01:39;;;;;;;;;;;;;;;18.26;45.23;95267.56;1044661;28;1868;-56
2021/10/30 01:02:10;;;;;;;;;;;;;;;18.25;45.38;95265.97;1048618;28;1441;-55
2021/10/30 01:02:41;;;;;;;;;;;;;;;18.26;45.39;95267.56;1045381;28;1827;-57
2021/10/30 01:03:11;;;;;;;;;;;;;;;18.26;45.29;95267.56;1046280;28;1859;-56
2021/10/30 01:03:44;;;;;;;;;;;;;;;18.25;45.38;95263.34;1047687;28;1815;-55
2021/10/30 01:04:14;;;;;;;;;;;;;;;18.27;45.34;95263.84;1048717;28;1232;-56
2021/10/30 01:04:45;;;;;;;;;;;;;;;18.26;45.39;95262.31;1048016;28;2024;-57
2021/10/30 01:05:15;;;;;;;;;;;;;;;18.26;45.31;95262.31;1049184;28;1150;-55
2021/10/30 01:05:55;;;;;;;;;;;;;;;18.26;45.36;95252.56;1046591;28;1358;-53
2021/10/30 01:06:25;;;;;;;;;;;;;;;18.25;45.31;95251.03;1042987;28;1210;-53
2021/10/30 01:06:58;;;;;;;;;;;;;;;18.25;45.39;95256.25;1039289;28;1069;-55
2021/10/30 01:07:31;;;;;;;;;;;;;;;18.24;45.39;95249.44;1041843;28;1977;-55
2021/10/30 01:08:22;;;;;;;;;;;;;;;18.24;45.44;95246.03;1047998;28;1553;-53
2021/10/30 01:09:12;;;;;;;;;;;;;;;18.27;45.36;95248.13;1046088;28;1105;-57
2021/10/30 01:10:03;;;;;;;;;;;;;;;18.25;45.31;95247.59;1048344;28;1426;-54
2021/10/30 01:10:53;;;;;;;;;;;;;;;18.23;45.47;95250.50;1048575;28;1064;-54
2021/10/30 01:11:37;;;;;;;;;;;;;;;18.23;45.59;95247.09;1049381;28;1374;-56
2021/10/30 01:12:08;;;;;;;;;;;;;;;18.23;45.39;95247.88;1048978;28;1135;-54
2021/10/30 01:12:58;;;;;;;;;;;;;;;18.22;45.37;95240.25;1048936;28;1971;-57
2021/10/30 01:13:48;;;;;;;;;;;;;;;18.22;45.37;95233.19;1047079;28;992;-55
2021/10/30 01:14:38;;;;;;;;;;;;;;;18.24;45.45;95238.16;1045234;28;1130;-56
2021/10/30 01:15:10;;;;;;;;;;;;;;;18.24;45.34;95248.63;1045646;28;1926;-55
2021/10/30 01:15:42;;;;;;;;;;;;;;;18.23;45.31;95240.00;1045389;28;1198;-57
2021/10/30 01:16:12;;;;;;;;;;;;;;;18.23;45.33;95239.22;1047836;28;1027;-55
2021/10/30 01:17:03;;;;;;;;;;;;;;;18.21;45.34;95239.50;1043787;28;1972;-57
2021/10/30 01:17:53;;;;;;;;;;;;;;;18.23;45.36;95236.59;1048956;28;1927;-55
2021/10/30 01:18:43;;;;;;;;;;;;;;;18.23;45.39;95232.13;1047517;28;1031;-55
2021/10/30 01:19:34;;;;;;;;;;;;;;;18.23;45.39;95231.34;1049460;28;1140;-54
2021/10/30 01:20:05;;;;;;;;;;;;;;;18.21;45.39;95229.00;1048919;28;1205;-58
2021/10/30 01:20:55;;;;;;;;;;;;;;;18.22;45.30;95230.56;1044217;28;1894;-57
2021/10/30 01:21:45;;;;;;;;;;;;;;;18.24;45.32;95222.41;1045370;28;1267;-56
2021/10/30 01:22:19;;;;;;;;;;;;;;;18.23;45.25;95233.97;1046599;28;1705;-58
2021/10/30 01:22:50;;;;;;;;;;;;;;;18.21;45.49;95228.22;1046301;28;1013;-59
2021/10/30 01:23:36;;;;;;;;;;;;;;;18.23;45.28;95231.34;1044733;28;1554;-57
2021/10/30 01:24:13;;;;;;;;;;;;;;;18.23;45.31;95228.72;1043871;28;1055;-58
2021/10/30 01:25:04;;;;;;;;;;;;;;;18.23;45.26;95231.34;1042551;28;1280;-55
2021/10/30 01:25:43;;;;;;;;;;;;;;;18.21;45.41;95231.63;1049009;28;1235;-57
2021/10/30 01:26:14;;;;;;;;;;;;;;;18.21;45.38;95228.22;1040640;28;1486;-58
2021/10/30 01:26:45;;;;;;;;;;;;;;;18.22;45.45;95232.38;1038035;28;1055;-57
2021/10/30 01:27:35;;;;;;;;;;;;;;;18.21;45.34;95234.25;1040818;28;1155;-56
2021/10/30 01:28:26;;;;;;;;;;;;;;;18.21;45.26;95234.25;1048732;28;1452;-58
2021/10/30 01:28:56;;;;;;;;;;;;;;;18.22;45.29;95227.94;1051102;28;1068;-56
2021/10/30 01:29:30;;;;;;;;;;;;;;;18.21;45.31;95228.22;1048979;28;1213;-56
2021/10/30 01:30:20;;;;;;;;;;;;;;;18.22;45.26;95227.13;1043926;28;1930;-58
2021/10/30 01:30:53;;;;;;;;;;;;;;;18.22;45.23;95232.38;1041127;28;1344;-59
2021/10/30 01:31:27;;;;;;;;;;;;;;;18.22;45.14;95229.75;1043714;28;1540;-55
2021/10/30 01:31:58;;;;;;;;;;;;;;;18.22;45.26;95221.91;1044717;28;1311;-58
2021/10/30 01:32:28;;;;;;;;;;;;;;;18.23;45.29;95228.72;1039641;28;1512;-57
2021/10/30 01:33:00;;;;;;;;;;;;;;;18.22;45.24;95224.53;1042998;28;2097;-56
2021/10/30 01:33:50;;;;;;;;;;;;;;;18.21;45.18;95217.72;1048899;28;1061;-56
2021/10/30 01:34:38;;;;;;;;;;;;;;;18.23;45.14;95216.41;1044380;28;1086;-56
2021/10/30 01:35:15;;;;;;;;;;;;;;;18.21;45.13;95217.72;1046259;28;1727;-55
2021/10/30 01:36:06;;;;;;;;;;;;;;;18.21;45.23;95222.97;1048595;28;1186;-56
2021/10/30 01:36:47;;;;;;;;;;;;;;;18.20;45.24;95218.75;1044662;28;2657;-56
2021/10/30 01:37:18;;;;;;;;;;;;;;;18.21;45.18;95222.97;1042055;28;1960;-53
2021/10/30 01:37:51;;;;;;;;;;;;;;;18.20;45.13;95231.88;1042958;28;1726;-50
2021/10/30 01:38:41;;;;;;;;;;;;;;;18.20;45.21;95231.88;1045181;28;1957;-51
2021/10/30 01:39:31;;;;;;;;;;;;;;;18.21;45.09;95233.47;1044189;28;1941;-54
2021/10/30 01:40:02;;;;;;;;;;;;;;;18.21;45.22;95233.47;1047034;28;2409;-53
2021/10/30 01:40:38;;;;;;;;;;;;;;;18.21;45.17;95233.47;1048938;28;972;-50
2021/10/30 01:41:12;;;;;;;;;;;;;;;18.21;45.22;95230.84;1044964;28;1982;-56
2021/10/30 01:41:43;;;;;;;;;;;;;;;18.20;45.18;95231.88;1046432;28;2128;-54
2021/10/30 01:42:34;;;;;;;;;;;;;;;18.20;45.18;95224.00;1047783;28;1942;-55
2021/10/30 01:43:24;;;;;;;;;;;;;;;18.20;45.21;95216.13;1042387;28;1898;-52
2021/10/30 01:44:14;;;;;;;;;;;;;;;18.21;45.15;95222.97;1046261;28;1934;-53
2021/10/30 01:45:05;;;;;;;;;;;;;;;18.18;45.13;95213.78;1045484;28;1920;-58
2021/10/30 01:45:41;;;;;;;;;;;;;;;18.19;45.18;95207.50;1046840;28;1921;-59
2021/10/30 01:46:15;;;;;;;;;;;;;;;18.19;45.14;95214.59;1047348;28;983;-53
2021/10/30 01:46:46;;;;;;;;;;;;;;;18.18;45.21;95213.78;1043977;28;1960;-55
2021/10/30 01:47:16;;;;;;;;;;;;;;;18.19;45.16;95219.81;1044653;28;1956;-55
2021/10/30 01:47:46;;;;;;;;;;;;;;;18.18;45.16;95213.78;1047333;28;1871;-52
2021/10/30 01:48:17;;;;;;;;;;;;;;;18.19;45.17;95218.00;1047775;28;1867;-52
2021/10/30 01:48:47;;;;;;;;;;;;;;;18.19;45.18;95219.81;1044924;28;1867;-55
2021/10/30 01:49:18;;;;;;;;;;;;;;;18.17;45.27;95220.09;1041889;28;1924;-56
2021/10/30 01:49:48;;;;;;;;;;;;;;;18.18;45.26;95213.78;1043036;28;1905;-55
2021/10/30 01:50:18;;;;;;;;;;;;;;;18.18;45.17;95221.66;1042692;28;2124;-51
2021/10/30 01:50:49;;;;;;;;;;;;;;;18.18;45.18;95219.03;1047494;28;1977;-55
2021/10/30 01:51:20;;;;;;;;;;;;;;;18.18;45.17;95220.88;1046383;28;1847;-55
2021/10/30 01:51:50;;;;;;;;;;;;;;;18.17;45.23;95216.69;1050731;28;1911;-53
2021/10/30 01:52:20;;;;;;;;;;;;;;;18.18;45.25;95213.00;1048051;28;1941;-52
2021/10/30 01:52:52;;;;;;;;;;;;;;;18.18;45.16;95211.16;1045639;28;1893;-54
2021/10/30 01:53:22;;;;;;;;;;;;;;;18.18;45.22;95216.41;1045294;28;1828;-54
2021/10/30 01:53:53;;;;;;;;;;;;;;;18.19;44.96;95206.72;1046156;28;1286;-52
2021/10/30 01:54:24;;;;;;;;;;;;;;;18.18;45.06;95210.38;1047121;28;2051;-57
2021/10/30 01:54:54;;;;;;;;;;;;;;;18.19;45.17;95206.72;1044670;28;1901;-55
2021/10/30 01:55:25;;;;;;;;;;;;;;;18.18;45.07;95211.16;1044614;28;1999;-57
2021/10/30 01:55:55;;;;;;;;;;;;;;;18.19;45.19;95209.34;1041199;28;2024;-59
2021/10/30 01:56:26;;;;;;;;;;;;;;;18.19;45.18;95211.97;1041879;28;1970;-52
2021/10/30 01:56:56;;;;;;;;;;;;;;;18.21;45.02;95212.47;1040617;28;2046;-54
2021/10/30 01:57:26;;;;;;;;;;;;;;;18.18;45.04;95210.38;1041003;28;1935;-58
2021/10/30 01:57:57;;;;;;;;;;;;;;;18.17;45.00;95207.00;1050936;28;1871;-55
2021/10/30 01:58:27;;;;;;;;;;;;;;;18.17;45.00;95212.25;1049393;28;1178;-57
2021/10/30 01:58:57;;;;;;;;;;;;;;;18.17;45.07;95206.19;1047261;28;1924;-54
2021/10/30 01:59:28;;;;;;;;;;;;;;;18.16;45.06;95208.03;1049218;28;1134;-56
2021/10/30 01:59:58;;;;;;;;;;;;;;;18.16;45.13;95200.16;1049179;28;1088;-55
2021/10/30 02:00:28;;;;;;;;;;;;;;;18.18;44.98;95197.25;1047829;28;1872;-53
2021/10/30 02:00:59;;;;;;;;;;;;;;;18.17;45.06;95195.72;1048112;28;1972;-57
2021/10/30 02:01:29;;;;;;;;;;;;;;;18.20;45.02;95195.94;1049167;28;1119;-56
2021/10/30 02:02:00;;;;;;;;;;;;;;;18.19;44.89;95199.63;1049046;28;1125;-58
2021/10/30 02:02:30;;;;;;;;;;;;;;;18.18;45.07;95198.06;1045921;28;2164;-55
2021/10/30 02:03:00;;;;;;;;;;;;;;;18.17;44.97;95198.34;1047638;28;1131;-55
2021/10/30 02:03:31;;;;;;;;;;;;;;;18.16;45.03;95192.28;1048951;28;1209;-57
2021/10/30 02:04:03;;;;;;;;;;;;;;;18.17;45.10;95190.47;1043731;28;1690;-55
2021/10/30 02:04:33;;;;;;;;;;;;;;;18.18;45.07;95194.63;1047658;28;1302;-52
2021/10/30 02:05:04;;;;;;;;;;;;;;;18.17;44.98;95190.47;1047855;28;1828;-59
2021/10/30 02:05:34;;;;;;;;;;;;;;;18.18;45.02;95189.38;1044816;28;2022;-57
2021/10/30 02:06:05;;;;;;;;;;;;;;;18.17;45.00;95193.09;1046342;28;1903;-58
2021/10/30 02:06:35;;;;;;;;;;;;;;;18.19;44.94;95194.38;1044689;28;2300;-58
2021/10/30 02:07:06;;;;;;;;;;;;;;;18.19;44.97;95194.38;1047865;28;1884;-55
2021/10/30 02:07:36;;;;;;;;;;;;;;;18.17;45.05;95201.75;1048899;28;1131;-57
2021/10/30 02:08:07;;;;;;;;;;;;;;;18.19;44.98;95198.84;1048890;28;1131;-55
2021/10/30 02:08:37;;;;;;;;;;;;;;;18.18;44.90;95200.69;1046436;28;2053;-59
2021/10/30 02:09:07;;;;;;;;;;;;;;;18.17;44.83;95198.34;1050910;28;1883;-57
2021/10/30 02:09:37;;;;;;;;;;;;;;;18.17;44.87;95203.56;1050406;28;1951;-55
2021/10/30 02:10:08;;;;;;;;;;;;;;;18.16;44.97;95194.13;1049134;28;1930;-55
2021/10/30 02:10:38;;;;;;;;;;;;;;;18.17;45.07;95206.19;1048463;28;1322;-56
2021/10/30 02:11:09;;;;;;;;;;;;;;;18.17;44.93;95200.94;1044541;28;1912;-54
2021/10/30 02:11:39;;;;;;;;;;;;;;;18.17;44.95;95203.56;1045819;28;1918;-54
2021/10/30 02:12:09;;;;;;;;;;;;;;;18.16;45.05;95208.03;1045346;28;2443;-55
2021/10/30 02:12:40;;;;;;;;;;;;;;;18.17;45.03;95206.19;1045451;28;1893;-52
2021/10/30 02:13:10;;;;;;;;;;;;;;;18.16;44.97;95209.88;1044548;28;2204;-53
2021/10/30 02:13:41;;;;;;;;;;;;;;;18.16;44.96;95204.63;1044930;28;1984;-54
2021/10/30 02:14:11;;;;;;;;;;;;;;;18.15;45.04;95203.06;1046299;28;1901;-56
2021/10/30 02:14:41;;;;;;;;;;;;;;;18.16;45.05;95204.63;1052446;28;1075;-55
2021/10/30 02:15:12;;;;;;;;;;;;;;;18.16;44.85;95204.63;1045785;28;2108;-57
2021/10/30 02:15:42;;;;;;;;;;;;;;;18.16;45.01;95202.78;1044954;28;1906;-55
2021/10/30 02:16:13;;;;;;;;;;;;;;;18.16;44.89;95199.38;1044138;28;1894;-57
2021/10/30 02:16:44;;;;;;;;;;;;;;;18.16;44.97;95196.75;1045845;28;2022;-57
2021/10/30 02:17:14;;;;;;;;;;;;;;;18.15;44.90;95193.38;1045374;28;1867;-57
2021/10/30 02:17:45;;;;;;;;;;;;;;;18.15;44.85;95192.56;1046513;28;1946;-58
2021/10/30 02:18:15;;;;;;;;;;;;;;;18.13;45.08;95186.81;1044285;28;1894;-58
2021/10/30 02:18:45;;;;;;;;;;;;;;;18.14;44.94;95191.00;1044826;28;1833;-57
2021/10/30 02:19:16;;;;;;;;;;;;;;;18.15;44.89;95182.09;1050923;28;1875;-55
2021/10/30 02:19:46;;;;;;;;;;;;;;;18.14;44.99;95180.50;1051005;28;1867;-59
2021/10/30 02:20:16;;;;;;;;;;;;;;;18.15;45.02;95182.09;1048535;28;1927;-60
2021/10/30 02:20:47;;;;;;;;;;;;;;;18.15;44.99;95182.09;1048914;28;1881;-54
2021/10/30 02:21:17;;;;;;;;;;;;;;;18.16;44.95;95188.88;1044954;28;1963;-56
2021/10/30 02:21:47;;;;;;;;;;;;;;;18.16;44.93;95186.25;1044579;28;2430;-57
2021/10/30 02:22:18;;;;;;;;;;;;;;;18.14;44.97;95181.28;1043967;28;1892;-56
2021/10/30 02:22:52;;;;;;;;;;;;;;;18.16;44.91;95188.88;1045236;28;2052;-57
2021/10/30 02:23:22;;;;;;;;;;;;;;;18.15;45.00;95182.09;1048677;28;2069;-56
2021/10/30 02:23:52;;;;;;;;;;;;;;;18.15;44.91;95185.50;1045170;28;1839;-54
2021/10/30 02:24:23;;;;;;;;;;;;;;;18.15;44.86;95184.69;1045185;28;2035;-55
2021/10/30 02:24:53;;;;;;;;;;;;;;;18.15;44.86;95184.69;1044879;28;1947;-57
2021/10/30 02:25:24;;;;;;;;;;;;;;;18.15;44.71;95187.31;1044785;28;2793;-55
2021/10/30 02:25:54;;;;;;;;;;;;;;;18.15;45.00;95182.09;1045437;28;2074;-57
2021/10/30 02:26:25;;;;;;;;;;;;;;;18.15;44.84;95182.09;1045061;28;1944;-54
2021/10/30 02:26:55;;;;;;;;;;;;;;;18.14;44.91;95176.03;1046585;28;1924;-54
2021/10/30 02:27:25;;;;;;;;;;;;;;;18.15;44.84;95184.69;1045220;28;2052;-57
2021/10/30 02:27:56;;;;;;;;;;;;;;;18.14;44.91;95181.28;1049532;28;1966;-57
2021/10/30 02:28:26;;;;;;;;;;;;;;;18.15;44.94;95179.47;1048506;28;2077;-58
2021/10/30 02:28:57;;;;;;;;;;;;;;;18.15;44.92;95179.47;1049181;28;1971;-58
2021/10/30 02:29:27;;;;;;;;;;;;;;;18.14;44.81;95173.41;1050173;28;2181;-57
2021/10/30 02:29:57;;;;;;;;;;;;;;;18.15;44.86;95172.38;1046976;28;2341;-57
2021/10/30 02:30:28;;;;;;;;;;;;;;;18.14;44.77;95176.03;1045824;28;1954;-57
2021/10/30 02:30:58;;;;;;;;;;;;;;;18.14;44.77;95181.28;1045613;28;1883;-54
2021/10/30 02:31:28;;;;;;;;;;;;;;;18.13;44.73;95179.75;1045435;28;2161;-55
2021/10/30 02:32:00;;;;;;;;;;;;;;;18.13;44.84;95181.56;1047778;28;1859;-58
2021/10/30 02:32:30;;;;;;;;;;;;;;;18.13;44.81;95184.19;1045149;28;1972;-58
2021/10/30 02:33:00;;;;;;;;;;;;;;;18.13;44.79;95189.44;1045151;28;2010;-55
2021/10/30 02:33:31;;;;;;;;;;;;;;;18.12;44.85;95182.59;1044808;28;1891;-58
2021/10/30 02:34:01;;;;;;;;;;;;;;;18.13;44.79;95187.59;1047468;28;1942;-59
2021/10/30 02:34:31;;;;;;;;;;;;;;;18.13;44.83;95184.19;1045001;28;1877;-59
2021/10/30 02:35:02;;;;;;;;;;;;;;;18.14;44.80;95196.22;1046919;28;2360;-58
2021/10/30 02:35:32;;;;;;;;;;;;;;;18.14;44.83;95199.66;1045851;28;1950;-57
2021/10/30 02:36:03;;;;;;;;;;;;;;;18.13;44.75;95194.69;1045235;28;1824;-56
2021/10/30 02:36:33;;;;;;;;;;;;;;;18.13;44.82;95195.47;1044813;28;2037;-57
2021/10/30 02:37:03;;;;;;;;;;;;;;;18.13;44.76;95194.69;1046589;28;1992;-58
2021/10/30 02:37:34;;;;;;;;;;;;;;;18.13;44.94;95194.69;1046021;28;1903;-54
2021/10/30 02:38:04;;;;;;;;;;;;;;;18.13;44.90;95186.81;1046099;28;1989;-55
2021/10/30 02:38:35;;;;;;;;;;;;;;;18.13;44.88;95199.94;1047731;28;1952;-56
2021/10/30 02:39:05;;;;;;;;;;;;;;;18.14;44.77;95198.84;1046369;28;1921;-57
2021/10/30 02:39:35;;;;;;;;;;;;;;;18.14;44.69;95197.03;1045534;28;1891;-58
2021/10/30 02:40:06;;;;;;;;;;;;;;;18.12;44.76;95196.50;1048578;28;1025;-57
2021/10/30 02:40:36;;;;;;;;;;;;;;;18.13;44.81;95194.69;1045195;28;1998;-55
2021/10/30 02:41:07;;;;;;;;;;;;;;;18.13;44.80;95194.69;1044596;28;2044;-55
2021/10/30 02:41:38;;;;;;;;;;;;;;;18.12;44.81;95188.66;1044246;28;1879;-56
2021/10/30 02:42:08;;;;;;;;;;;;;;;18.12;44.81;95199.13;1045509;28;2033;-56
2021/10/30 02:42:38;;;;;;;;;;;;;;;18.12;44.83;95195.72;1047582;28;1889;-56
2021/10/30 02:43:09;;;;;;;;;;;;;;;18.13;44.68;95195.47;1044794;28;1974;-55
2021/10/30 02:43:39;;;;;;;;;;;;;;;18.12;44.86;95190.47;1046295;28;1992;-57
2021/10/30 02:44:10;;;;;;;;;;;;;;;18.13;44.82;95192.84;1046616;28;1993;-56
2021/10/30 02:44:40;;;;;;;;;;;;;;;18.13;44.79;95200.72;1044431;28;2101;-56
2021/10/30 02:45:10;;;;;;;;;;;;;;;18.13;44.79;95192.06;1046755;28;1933;-58
2021/10/30 02:45:41;;;;;;;;;;;;;;;18.13;44.78;95189.44;1045522;28;1874;-54
2021/10/30 02:46:11;;;;;;;;;;;;;;;18.13;44.81;95194.69;1043691;28;1891;-58
2021/10/30 02:46:41;;;;;;;;;;;;;;;18.12;44.80;95182.59;1047338;28;1959;-57
2021/10/30 02:47:12;;;;;;;;;;;;;;;18.14;44.76;95175.25;1044183;28;2324;-55
2021/10/30 02:47:42;;;;;;;;;;;;;;;18.12;44.65;95177.38;1045806;28;1908;-53
2021/10/30 02:48:12;;;;;;;;;;;;;;;18.12;44.83;95172.91;1048821;28;1746;-52
2021/10/30 02:48:43;;;;;;;;;;;;;;;18.13;44.75;95174.50;1047663;28;1900;-55
2021/10/30 02:49:13;;;;;;;;;;;;;;;18.14;44.59;95168.19;1046773;28;2083;-53
2021/10/30 02:49:43;;;;;;;;;;;;;;;18.14;44.61;95170.78;1044877;28;1841;-57
2021/10/30 02:50:14;;;;;;;;;;;;;;;18.12;44.77;95172.91;1045720;28;1923;-53
2021/10/30 02:50:44;;;;;;;;;;;;;;;18.11;44.79;95170.56;1044886;28;1923;-56
2021/10/30 02:51:14;;;;;;;;;;;;;;;18.13;44.73;95173.69;1044719;28;1799;-56
2021/10/30 02:51:44;;;;;;;;;;;;;;;18.11;44.72;95170.56;1046158;28;1895;-54